Time;durP1;ratioP1;P1;durP2;ratioP2;P2;SDS_P1;SDS_P2;PMS_P1;PMS_P2;Temp;Humidity;BMP_temperature;BMP_pressure;BME280_temperature;BME280_humidity;BME280_pressure;Samples;Min_cycle;Max_cycle;Signal;HPM_P1;HPM_P2
2021/10/13 00:01:06;;;;;;;9.50;5.78;;;7.90;93.40;;;;;;5040190;28;20296;-74
2021/10/13 00:03:32;;;;;;;8.73;5.13;;;7.90;93.50;;;;;;5041059;28;20024;-74
2021/10/13 00:05:58;;;;;;;9.90;5.70;;;8.00;93.40;;;;;;5041383;28;20048;-74
2021/10/13 00:08:24;;;;;;;9.20;5.38;;;8.00;93.30;;;;;;5040251;28;20029;-75
2021/10/13 00:10:50;;;;;;;9.57;4.95;;;8.00;93.20;;;;;;5037426;28;20025;-74
2021/10/13 00:13:16;;;;;;;8.50;5.53;;;8.00;93.00;;;;;;5020382;28;20308;-74
2021/10/13 00:15:42;;;;;;;10.05;5.10;;;7.90;93.00;;;;;;5020457;28;20379;-74
2021/10/13 00:18:08;;;;;;;7.85;5.47;;;7.90;93.00;;;;;;5020558;28;20017;-75
2021/10/13 00:20:34;;;;;;;9.52;5.78;;;7.80;93.00;;;;;;5004355;28;20049;-74
2021/10/13 00:23:02;;;;;;;9.05;5.70;;;7.80;93.00;;;;;;5003926;28;20022;-75
2021/10/13 00:25:28;;;;;;;10.75;5.30;;;7.80;93.00;;;;;;5020448;28;20100;-75
2021/10/13 00:27:54;;;;;;;10.05;4.95;;;7.70;92.90;;;;;;5020130;28;20208;-75
2021/10/13 00:30:20;;;;;;;7.80;4.70;;;7.70;93.00;;;;;;5020207;28;20029;-74
2021/10/13 00:32:46;;;;;;;8.15;4.80;;;7.80;93.00;;;;;;5021328;28;20045;-75
2021/10/13 00:35:11;;;;;;;6.55;4.25;;;7.80;93.00;;;;;;5019934;28;20026;-75
2021/10/13 00:37:37;;;;;;;9.80;4.63;;;7.80;93.00;;;;;;5020092;28;20232;-74
2021/10/13 00:40:05;;;;;;;7.25;4.78;;;7.80;92.70;;;;;;5023216;28;20034;-75
2021/10/13 00:42:31;;;;;;;9.20;4.97;;;7.80;92.80;;;;;;5023935;28;20040;-75
2021/10/13 00:44:57;;;;;;;9.70;5.50;;;7.70;92.80;;;;;;5043289;28;20025;-75
2021/10/13 00:47:22;;;;;;;11.65;5.97;;;7.70;93.00;;;;;;5026814;28;20049;-74
2021/10/13 00:49:48;;;;;;;7.88;5.43;;;7.70;93.00;;;;;;5010525;28;20096;-74
2021/10/13 00:52:15;;;;;;;9.57;5.22;;;7.70;93.20;;;;;;5044441;28;20017;-75
2021/10/13 00:54:42;;;;;;;8.80;5.25;;;7.70;93.00;;;;;;5026655;28;20057;-75
2021/10/13 00:57:08;;;;;;;8.77;4.63;;;7.60;93.10;;;;;;5010311;28;20068;-74
2021/10/13 00:59:34;;;;;;;10.95;5.65;;;7.60;93.00;;;;;;5026741;28;20193;-74
2021/10/13 01:02:12;;;;;;;8.18;5.15;;;7.60;92.80;;;;;;5043172;28;20050;-74
2021/10/13 01:04:56;;;;;;;;;;;7.60;92.90;;;;;;5012278;28;20023;-75
2021/10/13 01:08:09;;;;;;;9.75;4.82;;;7.60;93.00;;;;;;5044207;28;19905;-74
2021/10/13 01:11:14;;;;;;;9.45;5.57;;;7.50;92.80;;;;;;5041584;28;20038;-75
2021/10/13 01:14:15;;;;;;;9.80;5.03;;;7.40;93.00;;;;;;5017993;28;20065;-74
2021/10/13 01:16:54;;;;;;;10.45;5.68;;;7.40;93.00;;;;;;5024313;28;20021;-75
2021/10/13 01:19:44;;;;;;;15.40;5.45;;;7.50;93.20;;;;;;5039634;28;20105;-75
2021/10/13 01:22:19;;;;;;;9.38;5.10;;;7.60;93.20;;;;;;5024085;28;20057;-74
2021/10/13 01:25:01;;;;;;;10.27;5.30;;;7.60;93.30;;;;;;5023923;28;20316;-75
2021/10/13 01:28:02;;;;;;;9.73;5.38;;;7.50;93.00;;;;;;5022754;28;20022;-74
2021/10/13 01:30:42;;;;;;;7.82;4.35;;;7.60;93.10;;;;;;5023181;28;20017;-75
2021/10/13 01:33:15;;;;;;;10.27;6.47;;;7.60;93.20;;;;;;5023776;28;20077;-74
2021/10/13 01:35:48;;;;;;;8.05;4.85;;;7.50;93.40;;;;;;5022913;28;20391;-74
2021/10/13 01:38:26;;;;;;;9.10;4.95;;;7.50;93.30;;;;;;5036266;23;20106;-75
2021/10/13 01:40:53;;;;;;;;;;;7.50;93.20;;;;;;4999763;28;20094;-75
2021/10/13 01:43:19;;;;;;;7.25;4.13;;;7.40;92.90;;;;;;5022921;28;19921;-75
2021/10/13 01:45:47;;;;;;;9.25;4.63;;;7.40;93.10;;;;;;5006883;28;20018;-76
2021/10/13 01:48:13;;;;;;;8.15;4.43;;;7.40;93.00;;;;;;5019810;28;20042;-75
2021/10/13 01:50:39;;;;;;;8.60;4.93;;;7.40;93.20;;;;;;5003105;28;20088;-75
2021/10/13 01:53:06;;;;;;;8.05;4.50;;;7.50;93.00;;;;;;4993902;28;20023;-75
2021/10/13 01:55:31;;;;;;;10.73;4.47;;;7.40;93.10;;;;;;4984007;28;20066;-75
2021/10/13 01:57:58;;;;;;;8.50;4.10;;;7.50;93.20;;;;;;4983882;28;20139;-75
2021/10/13 02:00:24;;;;;;;8.25;4.28;;;7.50;93.20;;;;;;4967869;28;20340;-75
2021/10/13 02:02:51;;;;;;;7.82;4.32;;;7.50;93.30;;;;;;4967793;28;20097;-75
2021/10/13 02:05:17;;;;;;;6.82;4.28;;;7.50;93.30;;;;;;4967505;28;20040;-75
2021/10/13 02:07:43;;;;;;;6.10;3.55;;;7.60;93.30;;;;;;4984602;28;20085;-75
2021/10/13 02:10:10;;;;;;;6.00;3.42;;;7.40;92.80;;;;;;4967770;28;20019;-75
2021/10/13 02:12:38;;;;;;;7.70;4.10;;;7.40;92.90;;;;;;4983139;28;20388;-75
2021/10/13 02:15:05;;;;;;;7.22;4.10;;;7.20;93.00;;;;;;4967379;28;20034;-75
2021/10/13 02:17:31;;;;;;;;;;;7.20;93.10;;;;;;4967746;28;20058;-75
2021/10/13 02:19:57;;;;;;;4.95;2.72;;;7.10;93.20;;;;;;4966728;28;20227;-75
2021/10/13 02:22:23;;;;;;;8.40;4.10;;;7.10;93.30;;;;;;4967469;28;20027;-75
2021/10/13 02:24:50;;;;;;;10.00;3.45;;;7.20;93.30;;;;;;4966914;28;20314;-75
2021/10/13 02:27:48;;;;;;;6.20;3.58;;;7.30;93.20;;;;;;4983303;28;20034;-75
2021/10/13 02:30:14;;;;;;;5.85;3.42;;;7.30;93.40;;;;;;4983971;28;20400;-76
2021/10/13 02:32:39;;;;;;;6.82;3.42;;;7.30;93.20;;;;;;4983375;28;20027;-76
2021/10/13 02:35:06;;;;;;;7.00;3.28;;;7.30;93.20;;;;;;4966581;28;20073;-76
2021/10/13 02:37:32;;;;;;;6.68;3.83;;;7.40;93.10;;;;;;4967022;28;20038;-75
2021/10/13 02:39:58;;;;;;;5.05;3.20;;;7.40;93.00;;;;;;4967109;28;20090;-75
2021/10/13 02:42:24;;;;;;;7.07;3.75;;;7.50;93.10;;;;;;4967038;28;20384;-75
2021/10/13 02:44:50;;;;;;;6.63;3.30;;;7.40;92.90;;;;;;4966688;28;20046;-75
2021/10/13 02:47:51;;;;;;;6.88;3.45;;;7.40;93.00;;;;;;4966924;28;20089;-75
2021/10/13 02:50:49;;;;;;;7.20;3.63;;;7.50;93.00;;;;;;4985345;28;20022;-75
2021/10/13 02:53:22;;;;;;;5.60;3.30;;;7.50;93.10;;;;;;4982908;28;20022;-75
2021/10/13 02:55:59;;;;;;;7.15;3.58;;;7.50;93.10;;;;;;4982801;28;20086;-75
2021/10/13 02:58:42;;;;;;;7.30;3.63;;;7.50;93.10;;;;;;4967894;28;20026;-75
2021/10/13 03:01:12;;;;;;;7.32;4.15;;;7.40;93.10;;;;;;4984062;28;20073;-78
2021/10/13 03:03:59;;;;;;;4.90;3.58;;;7.40;93.20;;;;;;4965696;28;20018;-78
2021/10/13 03:06:28;;;;;;;8.25;3.47;;;7.40;93.10;;;;;;4967916;28;20073;-78
2021/10/13 03:08:54;;;;;;;4.95;3.17;;;7.50;93.10;;;;;;4966766;28;20027;-78
2021/10/13 03:11:22;;;;;;;4.40;3.08;;;7.40;92.80;;;;;;4966675;28;20026;-78
2021/10/13 03:13:49;;;;;;;7.60;3.75;;;7.30;92.90;;;;;;4965722;28;20098;-78
2021/10/13 03:16:15;;;;;;;5.50;3.53;;;7.30;93.00;;;;;;4935032;28;20035;-78
2021/10/13 03:18:41;;;;;;;5.00;3.30;;;7.20;92.90;;;;;;4966547;28;20130;-78
2021/10/13 03:21:07;;;;;;;8.32;3.13;;;7.20;92.80;;;;;;4966505;28;20026;-78
2021/10/13 03:23:32;;;;;;;7.05;3.97;;;7.20;93.00;;;;;;4998406;28;20107;-78
2021/10/13 03:26:10;;;;;;;5.93;3.88;;;7.20;92.90;;;;;;4966551;28;20268;-78
2021/10/13 03:28:37;;;;;;;5.93;3.78;;;7.20;93.10;;;;;;4966186;28;20102;-78
2021/10/13 03:31:03;;;;;;;8.30;3.92;;;7.20;93.10;;;;;;4998586;28;20035;-78
2021/10/13 03:33:29;;;;;;;6.88;3.90;;;7.20;93.00;;;;;;4950049;28;20070;-78
2021/10/13 03:35:55;;;;;;;8.60;4.82;;;7.30;93.30;;;;;;4998476;28;20037;-78
2021/10/13 03:38:21;;;;;;;7.18;4.10;;;7.30;93.20;;;;;;4966213;28;20045;-78
2021/10/13 03:40:47;;;;;;;6.80;4.10;;;7.30;93.20;;;;;;4950234;28;20023;-78
2021/10/13 03:43:12;;;;;;;9.05;4.03;;;7.30;93.10;;;;;;4997783;28;20022;-78
2021/10/13 03:45:38;;;;;;;6.75;3.80;;;7.30;93.20;;;;;;4983343;28;20037;-78
2021/10/13 03:48:04;;;;;;;10.65;4.07;;;7.30;93.20;;;;;;4965928;28;20214;-78
2021/10/13 03:50:30;;;;;;;7.50;4.22;;;7.20;93.20;;;;;;4966060;28;20038;-78
2021/10/13 03:52:56;;;;;;;8.07;4.28;;;7.20;93.20;;;;;;4965929;28;20375;-78
2021/10/13 03:55:22;;;;;;;12.20;4.40;;;7.20;93.30;;;;;;4981977;28;20094;-78
2021/10/13 03:57:48;;;;;;;9.32;4.53;;;7.20;93.40;;;;;;4981912;28;20022;-78
2021/10/13 04:00:19;;;;;;;8.27;4.15;;;7.20;93.40;;;;;;4966109;28;20219;-78
2021/10/13 04:02:45;;;;;;;7.05;4.22;;;7.20;93.40;;;;;;4981938;28;20081;-78
2021/10/13 04:05:11;;;;;;;10.03;4.80;;;7.30;93.40;;;;;;4965854;28;20035;-78
2021/10/13 04:07:37;;;;;;;7.53;4.82;;;7.30;93.40;;;;;;4981395;28;20019;-78
2021/10/13 04:10:05;;;;;;;9.02;4.97;;;7.20;93.30;;;;;;4981171;28;20033;-78
2021/10/13 04:12:31;;;;;;;8.00;4.30;;;7.20;93.40;;;;;;4964320;28;20042;-77
2021/10/13 04:14:57;;;;;;;7.65;4.70;;;7.20;93.10;;;;;;4983534;28;20054;-78
2021/10/13 04:17:23;;;;;;;11.57;5.07;;;7.10;93.10;;;;;;4968539;28;20022;-78
2021/10/13 04:19:49;;;;;;;8.63;4.22;;;7.20;93.20;;;;;;4984599;28;20026;-78
2021/10/13 04:22:14;;;;;;;8.30;4.20;;;7.10;93.30;;;;;;4968575;28;20026;-78
2021/10/13 04:24:40;;;;;;;8.75;4.70;;;7.20;93.50;;;;;;4968173;28;20198;-78
2021/10/13 04:27:06;;;;;;;8.43;4.72;;;7.10;93.50;;;;;;4985330;28;20042;-78
2021/10/13 04:29:32;;;;;;;10.27;5.55;;;7.20;93.60;;;;;;4952429;28;20026;-78
2021/10/13 04:31:58;;;;;;;9.40;4.78;;;7.20;93.40;;;;;;4984244;28;20348;-78
2021/10/13 04:34:23;;;;;;;7.15;4.00;;;7.30;93.30;;;;;;4967989;28;20030;-78
2021/10/13 04:36:49;;;;;;;10.52;5.05;;;7.20;93.10;;;;;;4968016;28;20187;-78
2021/10/13 04:39:15;;;;;;;10.75;5.32;;;7.30;93.30;;;;;;4984360;28;20026;-78
2021/10/13 04:41:41;;;;;;;9.70;4.80;;;7.30;93.30;;;;;;4968097;28;20277;-78
2021/10/13 04:44:07;;;;;;;11.02;5.80;;;7.30;93.40;;;;;;4999841;28;20326;-78
2021/10/13 04:46:32;;;;;;;8.20;4.82;;;7.30;93.30;;;;;;4985261;28;20077;-78
2021/10/13 04:48:59;;;;;;;8.32;5.15;;;7.30;93.30;;;;;;4984068;28;20046;-78
2021/10/13 04:51:25;;;;;;;;;;;7.30;93.20;;;;;;4968573;28;20022;-78
2021/10/13 04:53:51;;;;;;;10.30;5.00;;;7.30;93.10;;;;;;4985078;28;19914;-78
2021/10/13 04:56:17;;;;;;;10.82;6.32;;;7.20;93.00;;;;;;4985168;28;20034;-78
2021/10/13 04:58:43;;;;;;;13.05;7.00;;;6.90;93.30;;;;;;4983725;28;20018;-78
2021/10/13 05:01:08;;;;;;;12.70;6.22;;;7.00;93.50;;;;;;4985179;28;20030;-78
2021/10/13 05:03:34;;;;;;;15.70;6.55;;;7.00;93.50;;;;;;4999826;28;20416;-78
2021/10/13 05:06:00;;;;;;;12.65;5.47;;;7.00;93.50;;;;;;4983954;28;20026;-78
2021/10/13 05:08:26;;;;;;;13.60;5.97;;;7.10;93.70;;;;;;4967817;28;20122;-78
2021/10/13 05:10:52;;;;;;;10.55;5.25;;;7.10;93.40;;;;;;4984722;28;20170;-78
2021/10/13 05:13:18;;;;;;;11.90;5.85;;;7.10;93.40;;;;;;4966530;28;20027;-78
2021/10/13 05:15:44;;;;;;;11.53;5.70;;;7.20;93.50;;;;;;4983386;28;20046;-77
2021/10/13 05:18:11;;;;;;;10.73;5.83;;;7.20;93.60;;;;;;4967545;28;20026;-78
2021/10/13 05:20:38;;;;;;;10.10;5.95;;;7.20;93.20;;;;;;4967561;28;20033;-78
2021/10/13 05:23:04;;;;;;;10.85;6.18;;;7.20;93.00;;;;;;4951398;28;20057;-78
2021/10/13 05:25:30;;;;;;;9.38;5.10;;;7.20;92.70;;;;;;4997246;28;20026;-78
2021/10/13 05:27:56;;;;;;;10.27;6.07;;;7.20;92.70;;;;;;4983033;28;20038;-78
2021/10/13 05:30:22;;;;;;;10.13;6.25;;;7.10;92.80;;;;;;4950956;28;20050;-78
2021/10/13 05:32:47;;;;;;;12.20;7.32;;;7.10;92.70;;;;;;4983297;28;20030;-77
2021/10/13 05:35:13;;;;;;;9.43;5.93;;;7.00;92.70;;;;;;4966830;28;20035;-77
2021/10/13 05:37:40;;;;;;;9.95;6.10;;;6.90;92.80;;;;;;4967073;28;20030;-76
2021/10/13 05:40:06;;;;;;;11.60;6.82;;;6.80;93.00;;;;;;4984560;28;20019;-76
2021/10/13 05:42:32;;;;;;;12.18;6.85;;;6.80;92.90;;;;;;4950907;28;20195;-77
2021/10/13 05:44:58;;;;;;;13.90;7.38;;;6.70;93.10;;;;;;4966708;28;20034;-76
2021/10/13 05:47:24;;;;;;;14.82;8.27;;;6.70;93.00;;;;;;4984324;28;20054;-76
2021/10/13 05:49:50;;;;;;;13.95;7.10;;;6.70;93.10;;;;;;4966792;28;20035;-76
2021/10/13 05:52:17;;;;;;;13.88;7.22;;;6.80;93.10;;;;;;4982762;28;20027;-76
2021/10/13 05:54:43;;;;;;;13.77;6.93;;;6.70;92.90;;;;;;4982659;28;20034;-77
2021/10/13 05:57:09;;;;;;;16.70;7.30;;;6.70;92.90;;;;;;4966886;28;20022;-77
2021/10/13 05:59:38;;;;;;;14.60;8.02;;;6.80;92.90;;;;;;4966568;28;20356;-77
2021/10/13 06:02:04;;;;;;;13.75;6.88;;;6.80;93.10;;;;;;4982769;28;20035;-68
2021/10/13 06:04:29;;;;;;;14.05;7.10;;;6.70;93.00;;;;;;4983587;28;20069;-67
2021/10/13 06:06:55;;;;;;;14.73;7.40;;;6.80;93.00;;;;;;4983384;28;20031;-67
2021/10/13 06:09:21;;;;;;;9.75;6.10;;;6.80;93.20;;;;;;4984242;28;20092;-67
2021/10/13 06:11:47;;;;;;;11.07;6.55;;;6.80;93.10;;;;;;4984045;28;20086;-67
2021/10/13 06:14:13;;;;;;;15.40;7.77;;;6.80;93.30;;;;;;4982446;28;20034;-67
2021/10/13 06:16:39;;;;;;;15.30;8.03;;;6.90;93.40;;;;;;4983958;28;20026;-67
2021/10/13 06:19:05;;;;;;;14.75;7.75;;;6.90;93.30;;;;;;4983477;28;20027;-67
2021/10/13 06:21:31;;;;;;;15.05;6.35;;;7.00;93.10;;;;;;4983738;28;20031;-77
2021/10/13 06:23:57;;;;;;;11.15;6.53;;;7.00;92.80;;;;;;4982456;28;20073;-77
2021/10/13 06:26:22;;;;;;;12.35;6.35;;;6.90;92.60;;;;;;4982200;28;20025;-77
2021/10/13 06:28:49;;;;;;;14.95;7.85;;;6.90;92.70;;;;;;4965929;28;20085;-78
2021/10/13 06:31:15;;;;;;;14.25;8.07;;;6.90;92.50;;;;;;4966412;28;20280;-77
2021/10/13 06:33:41;;;;;;;11.20;6.10;;;7.00;92.60;;;;;;4982175;28;20042;-78
2021/10/13 06:36:07;;;;;;;17.60;7.40;;;6.90;92.60;;;;;;4983590;28;20038;-78
2021/10/13 06:38:34;;;;;;;11.93;7.05;;;6.90;92.60;;;;;;4966533;28;20042;-77
2021/10/13 06:41:00;;;;;;;13.10;7.50;;;6.90;92.50;;;;;;4982349;28;20027;-78
2021/10/13 06:43:27;;;;;;;11.48;6.68;;;6.70;92.90;;;;;;4965825;28;20037;-73
2021/10/13 06:45:53;;;;;;;11.32;6.63;;;6.90;93.00;;;;;;4981632;28;20220;-77
2021/10/13 06:48:21;;;;;;;13.23;7.17;;;6.90;92.90;;;;;;4983787;28;20073;-78
2021/10/13 06:50:47;;;;;;;15.52;7.25;;;7.00;93.00;;;;;;4983219;28;20201;-78
2021/10/13 06:53:13;;;;;;;10.90;6.50;;;7.10;93.00;;;;;;4950458;28;20023;-78
2021/10/13 06:55:39;;;;;;;14.48;7.43;;;7.10;92.70;;;;;;4981985;28;20384;-81
2021/10/13 06:58:05;;;;;;;12.40;7.18;;;7.20;92.70;;;;;;4965934;28;20046;-78
2021/10/13 07:00:31;;;;;;;15.50;7.15;;;7.20;92.60;;;;;;4981720;28;20034;-77
2021/10/13 07:02:57;;;;;;;14.40;8.20;;;7.20;92.50;;;;;;4982007;28;20031;-78
2021/10/13 07:05:23;;;;;;;14.32;7.88;;;7.20;92.50;;;;;;4965574;28;20365;-77
2021/10/13 07:07:49;;;;;;;14.48;7.43;;;7.40;92.60;;;;;;4981978;28;20373;-75
2021/10/13 07:10:16;;;;;;;12.85;7.63;;;7.50;92.70;;;;;;4949333;28;20049;-76
2021/10/13 07:12:42;;;;;;;16.58;8.55;;;7.50;92.30;;;;;;4965248;28;20062;-75
2021/10/13 07:15:08;;;;;;;14.82;8.00;;;7.60;92.50;;;;;;4981015;28;20027;-73
2021/10/13 07:17:34;;;;;;;13.60;7.78;;;7.60;92.40;;;;;;4965201;28;20030;-75
2021/10/13 07:20:02;;;;;;;13.52;7.07;;;7.50;92.10;;;;;;4981190;28;20031;-75
2021/10/13 07:22:28;;;;;;;11.75;7.30;;;7.50;91.90;;;;;;4965200;28;20034;-74
2021/10/13 07:24:56;;;;;;;14.48;7.90;;;7.40;92.10;;;;;;4980660;28;20058;-75
2021/10/13 07:27:21;;;;;;;13.82;7.25;;;7.50;92.30;;;;;;4964699;28;20042;-75
2021/10/13 07:29:55;;;;;;;12.80;7.70;;;7.50;92.20;;;;;;4964895;28;20027;-64
2021/10/13 07:32:21;;;;;;;12.90;6.57;;;7.50;92.40;;;;;;4972892;28;20023;-74
2021/10/13 07:34:46;;;;;;;13.02;6.47;;;7.60;92.00;;;;;;4945573;29;20044;-77
2021/10/13 07:37:12;;;;;;;13.23;6.65;;;7.70;91.90;;;;;;4961730;28;20235;-76
2021/10/13 07:39:39;;;;;;;10.82;6.07;;;7.70;91.50;;;;;;4929972;29;20034;-76
2021/10/13 07:42:05;;;;;;;;;;;7.80;91.40;;;;;;4946351;28;20019;-76
2021/10/13 07:44:31;;;;;;;9.20;5.30;;;7.80;91.30;;;;;;4945313;28;19925;-77
2021/10/13 07:46:56;;;;;;;13.38;6.97;;;7.70;91.60;;;;;;4962763;28;20035;-74
2021/10/13 07:49:22;;;;;;;14.02;6.80;;;7.80;91.60;;;;;;4929220;29;20138;-75
2021/10/13 07:51:48;;;;;;;12.65;6.18;;;7.80;91.50;;;;;;4945533;28;20027;-73
2021/10/13 07:54:14;;;;;;;12.05;6.30;;;7.70;91.50;;;;;;4962518;28;20022;-74
2021/10/13 07:56:40;;;;;;;11.68;6.00;;;7.80;91.60;;;;;;4972820;28;20031;-74
2021/10/13 07:59:05;;;;;;;9.73;5.78;;;7.80;91.50;;;;;;4980846;28;20090;-73
2021/10/13 08:01:31;;;;;;;13.10;6.35;;;7.80;91.50;;;;;;4981052;28;20345;-73
2021/10/13 08:03:57;;;;;;;12.68;6.40;;;7.90;91.40;;;;;;4980668;28;20368;-73
2021/10/13 08:06:23;;;;;;;11.60;6.32;;;8.00;91.40;;;;;;4964895;28;20469;-73
2021/10/13 08:08:49;;;;;;;13.30;6.68;;;8.10;91.30;;;;;;4981911;28;20091;-73
2021/10/13 08:11:15;;;;;;;12.20;6.05;;;8.10;90.40;;;;;;4981342;28;20167;-73
2021/10/13 08:13:40;;;;;;;12.57;5.88;;;8.10;90.70;;;;;;4980177;28;20030;-73
2021/10/13 08:16:06;;;;;;;13.40;6.50;;;8.20;90.90;;;;;;4981120;28;20234;-72
2021/10/13 08:18:32;;;;;;;9.45;5.38;;;8.30;91.10;;;;;;4980797;28;20023;-73
2021/10/13 08:20:58;;;;;;;11.43;6.15;;;8.20;90.40;;;;;;4980808;28;20054;-73
2021/10/13 08:23:24;;;;;;;10.32;6.72;;;8.20;90.30;;;;;;4964515;28;20254;-73
2021/10/13 08:25:54;;;;;;;10.52;6.22;;;8.20;90.50;;;;;;4980854;28;20062;-73
2021/10/13 08:28:21;;;;;;;10.05;6.22;;;8.30;90.80;;;;;;4965114;28;20326;-73
2021/10/13 08:30:47;;;;;;;10.95;6.47;;;8.30;90.70;;;;;;4980743;28;20022;-72
2021/10/13 08:33:13;;;;;;;14.40;7.03;;;8.20;90.80;;;;;;4964471;28;20042;-72
2021/10/13 08:35:38;;;;;;;9.50;5.63;;;8.30;90.90;;;;;;4981872;28;20046;-74
2021/10/13 08:38:04;;;;;;;9.88;5.80;;;8.20;90.40;;;;;;4980612;28;20030;-74
2021/10/13 08:40:31;;;;;;;8.40;5.68;;;8.40;90.50;;;;;;4980745;28;20027;-74
2021/10/13 08:43:01;;;;;;;9.07;5.43;;;8.50;90.90;;;;;;4980214;28;20026;-74
2021/10/13 08:45:29;;;;;;;11.75;5.85;;;8.60;90.30;;;;;;4980786;28;20026;-74
2021/10/13 08:47:55;;;;;;;10.45;5.35;;;8.70;90.50;;;;;;4964739;28;20468;-74
2021/10/13 08:50:21;;;;;;;10.73;5.50;;;8.60;90.10;;;;;;4965020;28;20041;-74
2021/10/13 08:52:47;;;;;;;10.30;5.43;;;8.60;90.30;;;;;;4965032;28;20034;-74
2021/10/13 08:55:13;;;;;;;9.07;4.80;;;8.70;89.70;;;;;;4964391;28;20026;-73
2021/10/13 08:57:39;;;;;;;14.13;5.83;;;8.50;89.70;;;;;;4964461;28;20022;-74
2021/10/13 09:00:08;;;;;;;10.35;5.50;;;8.60;90.30;;;;;;4964353;28;20329;-74
2021/10/13 09:02:42;;;;;;;9.13;4.78;;;8.70;89.60;;;;;;4967565;28;20082;-74
2021/10/13 09:05:18;;;;;;;6.63;4.13;;;8.80;89.50;;;;;;4936228;28;20022;-75
2021/10/13 09:07:53;;;;;;;9.82;4.93;;;8.80;89.50;;;;;;4951879;28;20056;-75
2021/10/13 09:10:30;;;;;;;8.63;4.30;;;8.80;89.90;;;;;;4967813;28;20390;-75
2021/10/13 09:12:56;;;;;;;8.35;4.78;;;8.90;90.00;;;;;;4967434;28;20339;-75
2021/10/13 09:15:27;;;;;;;6.97;3.72;;;9.00;90.10;;;;;;4967591;28;20225;-75
2021/10/13 09:18:06;;;;;;;9.50;3.95;;;9.00;88.70;;;;;;4967733;28;20019;-75
2021/10/13 09:20:38;;;;;;;7.43;3.25;;;9.10;87.60;;;;;;4984610;28;20034;-75
2021/10/13 09:23:30;;;;;;;6.88;3.85;;;9.20;88.10;;;;;;4968007;28;20333;-75
2021/10/13 09:26:10;;;;;;;8.88;3.60;;;9.10;87.30;;;;;;4984285;28;20047;-75
2021/10/13 09:28:36;;;;;;;8.80;3.38;;;9.20;87.30;;;;;;4967378;28;20022;-75
2021/10/13 09:31:18;;;;;;;4.28;2.67;;;9.20;86.10;;;;;;4967857;28;20086;-75
2021/10/13 09:33:59;;;;;;;8.68;3.58;;;9.30;87.10;;;;;;4983507;28;20081;-75
2021/10/13 09:36:47;;;;;;;4.65;3.25;;;9.30;85.70;;;;;;4968679;28;20339;-75
2021/10/13 09:39:18;;;;;;;4.57;3.08;;;9.40;85.30;;;;;;4985146;28;20027;-77
2021/10/13 09:42:09;;;;;;;9.10;3.60;;;9.40;86.10;;;;;;4968018;28;20313;-77
2021/10/13 09:44:54;;;;;;;7.85;3.20;;;9.60;85.70;;;;;;4983005;28;20066;-74
2021/10/13 09:47:34;;;;;;;5.07;2.63;;;9.70;85.50;;;;;;4984209;28;20026;-75
2021/10/13 09:50:00;;;;;;;5.40;2.90;;;9.70;83.20;;;;;;4966710;28;20027;-75
2021/10/13 09:52:30;;;;;;;6.18;3.05;;;9.80;82.00;;;;;;4966919;28;20479;-74
2021/10/13 09:55:04;;;;;;;5.63;2.75;;;9.80;82.70;;;;;;4966410;28;20056;-75
2021/10/13 09:57:32;;;;;;;4.60;2.95;;;9.90;82.00;;;;;;4982779;28;20049;-74
2021/10/13 10:00:23;;;;;;;10.35;3.63;;;10.10;80.30;;;;;;4966766;28;20066;-75
2021/10/13 10:02:54;;;;;;;5.25;2.58;;;10.30;82.20;;;;;;4969885;28;20026;-75
2021/10/13 10:05:29;;;;;;;5.13;2.67;;;10.50;80.80;;;;;;4966922;28;20026;-75
2021/10/13 10:08:25;;;;;;;4.53;2.65;;;10.70;80.70;;;;;;4984290;28;20241;-75
2021/10/13 10:11:02;;;;;;;7.55;3.05;;;10.70;78.50;;;;;;4990648;28;20030;-75
2021/10/13 10:13:41;;;;;;;4.63;2.70;;;10.70;75.80;;;;;;4967363;28;20026;-75
2021/10/13 10:16:09;;;;;;;5.20;2.47;;;10.50;76.00;;;;;;4951769;28;20389;-75
2021/10/13 10:18:37;;;;;;;3.63;2.45;;;10.50;77.60;;;;;;4966553;28;20042;-75
2021/10/13 10:21:25;;;;;;;4.00;2.50;;;10.70;78.30;;;;;;4966546;28;20113;-75
2021/10/13 10:23:56;;;;;;;4.47;2.42;;;10.90;76.30;;;;;;4998099;28;20359;-75
2021/10/13 10:26:25;;;;;;;4.68;2.38;;;11.00;74.90;;;;;;4982259;28;20026;-75
2021/10/13 10:28:51;;;;;;;5.05;2.40;;;10.80;75.40;;;;;;4983065;28;20030;-75
2021/10/13 10:31:29;;;;;;;4.70;2.40;;;11.20;77.70;;;;;;4983330;28;20023;-75
2021/10/13 10:34:06;;;;;;;6.53;2.90;;;11.40;77.10;;;;;;4983007;28;20085;-75
2021/10/13 10:36:35;;;;;;;;;;;11.50;75.80;;;;;;4983424;28;20310;-75
2021/10/13 10:39:02;;;;;;;4.65;2.05;;;11.50;74.30;;;;;;4998077;28;19929;-75
2021/10/13 10:41:55;;;;;;;4.20;1.92;;;11.60;75.60;;;;;;4981890;28;20031;-75
2021/10/13 10:44:33;;;;;;;3.95;1.63;;;12.00;75.80;;;;;;4967652;28;20089;-74
2021/10/13 10:47:10;;;;;;;2.30;1.52;;;12.30;69.20;;;;;;4981796;28;20022;-75
2021/10/13 10:49:53;;;;;;;3.15;1.70;;;12.80;71.40;;;;;;4982329;28;20041;-75
2021/10/13 10:52:20;;;;;;;1.95;1.60;;;13.40;69.30;;;;;;4997843;28;20058;-75
2021/10/13 10:55:04;;;;;;;3.90;1.83;;;14.10;64.10;;;;;;4981291;28;20078;-75
2021/10/13 10:57:56;;;;;;;3.13;0.98;;;14.60;58.10;;;;;;4967655;28;20023;-75
2021/10/13 11:00:22;;;;;;;3.05;1.00;;;15.20;53.80;;;;;;4980027;28;20110;-75
2021/10/13 11:02:51;;;;;;;1.33;1.00;;;15.00;50.60;;;;;;4982815;28;20027;-75
2021/10/13 11:05:20;;;;;;;1.52;1.23;;;14.50;51.60;;;;;;4965336;28;20073;-75
2021/10/13 11:07:48;;;;;;;2.78;1.30;;;13.90;54.50;;;;;;4981160;28;20038;-75
2021/10/13 11:10:14;;;;;;;1.75;1.20;;;13.30;56.70;;;;;;4981184;28;20039;-75
2021/10/13 11:12:54;;;;;;;1.80;1.20;;;13.00;59.70;;;;;;4981406;28;20313;-75
2021/10/13 11:15:22;;;;;;;2.65;1.50;;;12.80;61.70;;;;;;4980549;28;20203;-74
2021/10/13 11:17:48;;;;;;;1.67;1.48;;;12.50;62.70;;;;;;4965348;28;20030;-75
2021/10/13 11:20:17;;;;;;;2.85;1.38;;;12.20;62.50;;;;;;4981113;28;20027;-75
2021/10/13 11:22:43;;;;;;;2.55;1.30;;;12.10;64.50;;;;;;4964557;28;20261;-74
2021/10/13 11:25:17;;;;;;;2.93;1.30;;;12.00;64.60;;;;;;4964377;28;20073;-74
2021/10/13 11:28:16;;;;;;;2.35;1.02;;;11.80;66.20;;;;;;4981056;28;20023;-74
2021/10/13 11:30:44;;;;;;;3.67;1.10;;;11.80;64.50;;;;;;4957953;28;20170;-74
2021/10/13 11:33:15;;;;;;;1.73;0.90;;;11.70;64.40;;;;;;4980784;28;20030;-74
2021/10/13 11:35:41;;;;;;;2.92;1.25;;;11.40;63.70;;;;;;4965140;28;20074;-74
2021/10/13 11:38:07;;;;;;;1.70;1.00;;;11.40;63.70;;;;;;4980894;28;20035;-74
2021/10/13 11:40:34;;;;;;;2.28;0.98;;;11.90;64.40;;;;;;4949081;28;20098;-75
2021/10/13 11:43:08;;;;;;;3.20;1.10;;;13.20;61.20;;;;;;4965047;28;20072;-74
2021/10/13 11:45:34;;;;;;;2.63;1.00;;;14.90;53.00;;;;;;4966038;28;20026;-75
2021/10/13 11:48:00;;;;;;;4.10;1.08;;;16.50;50.70;;;;;;4965088;28;20034;-75
2021/10/13 11:50:29;;;;;;;1.55;0.80;;;18.20;46.60;;;;;;4965162;28;20039;-75
2021/10/13 11:52:58;;;;;;;0.95;0.80;;;18.40;45.40;;;;;;4949027;28;20027;-75
2021/10/13 11:55:29;;;;;;;2.20;0.75;;;18.80;44.30;;;;;;4965466;28;20051;-75
2021/10/13 11:58:00;;;;;;;2.70;1.00;;;18.30;43.40;;;;;;4965867;28;20041;-75
2021/10/13 12:00:59;;;;;;;1.42;0.80;;;17.30;45.60;;;;;;4965340;28;20027;-75
2021/10/13 12:03:33;;;;;;;1.42;0.70;;;15.90;45.50;;;;;;4959569;28;20073;-75
2021/10/13 12:05:59;;;;;;;1.70;0.90;;;15.40;47.20;;;;;;4965797;28;20049;-75
2021/10/13 12:08:43;;;;;;;1.92;0.70;;;15.80;46.10;;;;;;4949094;28;20353;-75
2021/10/13 12:11:14;;;;;;;2.03;0.80;;;17.60;44.00;;;;;;4965142;28;20035;-75
2021/10/13 12:13:44;;;;;;;0.60;0.60;;;17.90;40.60;;;;;;4964070;28;20035;-74
2021/10/13 12:16:12;;;;;;;1.65;0.60;;;18.10;40.80;;;;;;4980703;28;20050;-75
2021/10/13 12:18:45;;;;;;;2.22;1.13;;;19.50;39.40;;;;;;4980848;28;20019;-75
2021/10/13 12:21:19;;;;;;;0.90;0.60;;;20.90;36.50;;;;;;4981038;28;20102;-75
2021/10/13 12:23:48;;;;;;;0.60;0.60;;;20.80;36.30;;;;;;4981209;28;20023;-75
2021/10/13 12:26:19;;;;;;;2.00;0.70;;;21.40;34.00;;;;;;4965089;28;20050;-75
2021/10/13 12:28:47;;;;;;;1.58;0.60;;;20.30;34.00;;;;;;4981083;28;20277;-75
2021/10/13 12:31:17;;;;;;;1.13;0.70;;;21.00;33.50;;;;;;4964426;28;20023;-76
2021/10/13 12:33:45;;;;;;;0.60;0.60;;;21.00;33.60;;;;;;4964770;28;20045;-75
2021/10/13 12:36:19;;;;;;;1.17;0.70;;;21.70;32.40;;;;;;4984079;28;20031;-76
2021/10/13 12:38:45;;;;;;;1.88;0.75;;;22.00;32.90;;;;;;4984549;28;20049;-76
2021/10/13 12:41:11;;;;;;;1.48;0.82;;;23.10;31.00;;;;;;4985652;28;20023;-76
2021/10/13 12:43:48;;;;;;;2.15;0.65;;;22.00;32.10;;;;;;4983903;28;20109;-75
2021/10/13 12:46:33;;;;;;;2.65;0.77;;;20.40;34.50;;;;;;4967929;28;20026;-75
2021/10/13 12:49:12;;;;;;;0.85;0.70;;;18.80;36.50;;;;;;4985222;28;20090;-75
2021/10/13 12:51:59;;;;;;;2.60;0.70;;;17.70;38.90;;;;;;4968834;28;20050;-75
2021/10/13 12:54:33;;;;;;;1.25;0.70;;;17.50;40.60;;;;;;4984090;28;20057;-75
2021/10/13 12:57:00;;;;;;;4.07;1.30;;;16.50;41.50;;;;;;4968084;28;20290;-75
2021/10/13 12:59:26;;;;;;;1.70;0.90;;;16.40;42.50;;;;;;4983897;28;20030;-75
2021/10/13 13:01:52;;;;;;;2.03;0.73;;;16.80;42.80;;;;;;4968194;28;20022;-75
2021/10/13 13:04:18;;;;;;;1.45;0.80;;;17.40;42.00;;;;;;4983977;28;20452;-75
2021/10/13 13:06:44;;;;;;;0.60;0.60;;;17.60;41.10;;;;;;4967953;28;20317;-75